Data for 12/14/2013

Time Sea-Level Adjusted Pressure Absolute Pressure Temperature Relative Humidity Dew Point   
(mb) (inHg) (mb) (inHg) (C) (F) (%) (C) (F)
00:05 1024 30.24 853 25.19 0.9 33.6 62 -5.6 22
00:10 1024 30.24 853 25.19 1 33.7 62 -5.6 21.9
00:15 1024 30.24 853 25.19 1 33.7 62 -5.6 22
00:20 1024 30.24 853 25.19 1 33.8 62 -5.4 22.2
00:25 1024 30.24 853 25.19 1 33.7 64 -5.1 22.8
00:30 1024 30.24 853 25.19 0.7 33.3 64 -5.4 22.3
00:35 1024 30.24 853 25.19 0.7 33.2 64 -5.4 22.3
00:40 1024 30.24 854 25.22 0.7 33.2 64 -5.3 22.4
00:45 1024 30.24 854 25.22 0.7 33.2 64 -5.4 22.3
00:50 1024 30.24 853 25.19 0.7 33.2 64 -5.3 22.4
00:55 1024 30.24 854 25.22 0.6 33.1 64 -5.5 22.1
01:00 1024 30.24 854 25.22 0.6 33.1 63 -5.6 21.9
01:05 1025 30.27 854 25.22 0.7 33.3 62 -5.7 21.7
01:10 1025 30.27 854 25.22 0.8 33.4 62 -5.6 21.9
01:15 1024 30.24 854 25.22 0.8 33.4 62 -5.7 21.8
01:20 1025 30.27 854 25.22 0.7 33.3 61 -5.9 21.4
01:25 1025 30.27 854 25.22 0.7 33.2 62 -5.9 21.4
01:30 1025 30.27 854 25.22 0.6 33.1 63 -5.7 21.7
01:35 1024 30.24 854 25.22 0.5 33 63 -5.7 21.7
01:40 1024 30.24 854 25.22 0.4 32.7 63 -5.8 21.6
01:45 1024 30.24 854 25.22 0.3 32.5 63 -5.9 21.4
01:50 1024 30.24 854 25.22 0.2 32.3 63 -6 21.1
01:55 1024 30.24 854 25.22 0 32 63 -6.1 21
02:00 1024 30.24 854 25.22 -0.1 31.8 62 -6.6 20.2
02:05 1024 30.24 853 25.19 -0.2 31.6 61 -6.8 19.8
02:10 1024 30.24 853 25.19 -0.3 31.5 62 -6.8 19.8
02:15 1024 30.24 853 25.19 -0.4 31.2 62 -6.8 19.7
02:20 1024 30.24 853 25.19 -0.6 30.9 62 -6.9 19.5
02:25 1024 30.24 853 25.19 -0.6 30.9 63 -6.8 19.7
02:30 1024 30.24 853 25.19 -0.5 31.1 62 -7 19.4
02:35 1024 30.24 853 25.19 -0.5 31.2 61 -7.1 19.2
02:40 1024 30.24 853 25.19 -0.6 30.9 62 -7.1 19.2
02:45 1024 30.24 854 25.22 -0.7 30.8 61 -7.2 19
02:50 1024 30.24 853 25.19 -0.8 30.5 62 -7.3 18.9
02:55 1024 30.24 854 25.22 -1 30.2 62 -7.4 18.6
03:00 1024 30.24 854 25.22 -1.1 30.1 62 -7.4 18.7
03:05 1024 30.24 854 25.22 -1.1 30 63 -7.3 18.8
03:10 1025 30.27 854 25.22 -1 30.1 62 -7.5 18.6
03:15 1025 30.27 854 25.22 -0.9 30.3 62 -7.4 18.7
03:20 1025 30.27 854 25.22 -0.8 30.6 61 -7.3 18.8
03:25 1025 30.27 854 25.22 -0.6 31 60 -7.4 18.7
03:30 1025 30.27 854 25.22 -0.4 31.3 59 -7.4 18.7
03:35 1025 30.27 854 25.22 -0.2 31.7 59 -7.3 18.8
03:40 1025 30.27 854 25.22 -0.2 31.6 60 -7.2 19.1
03:45 1025 30.27 854 25.22 -0.5 31 61 -7.2 19.1
03:50 1025 30.27 854 25.22 -0.8 30.6 62 -7.2 19
03:55 1025 30.27 854 25.22 -1 30.2 63 -7.2 19
04:00 1025 30.27 854 25.22 -1.1 30 63 -7.2 19
04:05 1025 30.27 854 25.22 -1.1 30.1 63 -7.3 18.8
04:10 1025 30.27 854 25.22 -1.1 30.1 63 -7.3 18.8
04:15 1025 30.27 854 25.22 -1.2 29.8 63 -7.4 18.7
04:20 1025 30.27 854 25.22 -1.3 29.6 64 -7.3 18.9
04:25 1025 30.27 854 25.22 -1.5 29.4 65 -7.2 19.1
04:30 1025 30.27 854 25.22 -1.6 29.1 65 -7.4 18.6
04:35 1025 30.27 854 25.22 -1.7 28.9 65 -7.4 18.7
04:40 1025 30.27 854 25.22 -1.9 28.7 65 -7.7 18.2
04:45 1025 30.27 854 25.22 -1.8 28.8 64 -7.7 18.2
04:50 1025 30.27 854 25.22 -1.8 28.8 63 -7.8 17.9
04:55 1025 30.27 854 25.22 -1.7 29 62 -7.9 17.7
05:00 1025 30.27 854 25.22 -1.5 29.4 62 -7.9 17.8
05:05 1025 30.27 854 25.22 -1.4 29.6 61 -7.9 17.8
05:10 1025 30.27 854 25.22 -1.3 29.7 61 -7.8 18
05:15 1025 30.27 854 25.22 -1.4 29.4 61 -8 17.7
05:20 1025 30.27 854 25.22 -1.5 29.4 61 -8.1 17.5
05:25 1025 30.27 854 25.22 -1.3 29.8 60 -8.1 17.4
05:30 1025 30.27 854 25.22 -1.1 30 60 -8 17.6
05:35 1025 30.27 854 25.22 -1.2 29.8 59 -8.2 17.3
05:40 1025 30.27 854 25.22 -1 30.1 59 -8.1 17.5
05:45 1025 30.27 854 25.22 -1.2 29.8 60 -8 17.7
05:50 1025 30.27 854 25.22 -1.5 29.3 64 -7.3 18.8
05:55 1025 30.27 854 25.22 -2.3 27.8 68 -7.4 18.7
06:00 1025 30.27 854 25.22 -2.8 27 69 -7.7 18.1
06:05 1025 30.27 854 25.22 -2.8 26.9 68 -8 17.6
06:10 1025 30.27 854 25.22 -2.5 27.5 65 -8.2 17.2
06:15 1025 30.27 854 25.22 -2.5 27.6 64 -8.4 16.8
06:20 1025 30.27 854 25.22 -2.8 27 65 -8.4 16.8
06:25 1025 30.27 854 25.22 -3.1 26.5 66 -8.5 16.7
06:30 1025 30.27 854 25.22 -3.3 26.1 68 -8.4 16.8
06:35 1025 30.27 854 25.22 -3.4 26 68 -8.5 16.7
06:40 1025 30.27 855 25.25 -3.1 26.4 67 -8.4 16.8
06:45 1025 30.27 855 25.25 -3 26.6 67 -8.2 17.2
06:50 1025 30.27 854 25.22 -3 26.7 67 -8.3 17.1
06:55 1025 30.27 854 25.22 -2.7 27.2 65 -8.3 17
07:00 1025 30.27 854 25.22 -2.5 27.6 64 -8.3 17
07:05 1025 30.27 854 25.22 -2.9 26.8 66 -8.3 17
07:10 1025 30.27 854 25.22 -3 26.6 65 -8.6 16.5
07:15 1025 30.27 854 25.22 -3.4 25.9 67 -8.7 16.4
07:20 1025 30.27 854 25.22 -3.6 25.6 66 -9 15.9
07:25 1025 30.27 854 25.22 -3.7 25.4 66 -9.1 15.7
07:30 1025 30.27 855 25.25 -4 24.8 67 -9.3 15.3
07:35 1025 30.27 854 25.22 -3.3 26.1 64 -9.1 15.6
07:40 1025 30.27 854 25.22 -3.1 26.5 65 -8.8 16.1
07:45 1025 30.27 854 25.22 -3 26.6 64 -8.8 16.2
07:50 1025 30.27 854 25.22 -2.6 27.2 63 -8.8 16.1
07:55 1025 30.27 854 25.22 -2.2 28 62 -8.6 16.5
08:00 1025 30.27 855 25.25 -2.1 28.2 61 -8.5 16.6
08:05 1025 30.27 855 25.25 -1.8 28.7 61 -8.4 16.9
08:10 1025 30.27 855 25.25 -1.7 28.9 61 -8.2 17.2
08:15 1025 30.27 855 25.25 -2 28.5 62 -8.3 17.1
08:20 1025 30.27 854 25.22 -2.2 28.1 63 -8.3 17
08:25 1025 30.27 854 25.22 -2.3 27.8 64 -8.3 17
08:30 1025 30.27 854 25.22 -2.4 27.6 64 -8.4 16.9
08:35 1025 30.27 854 25.22 -2.5 27.5 64 -8.4 16.9
08:40 1025 30.27 854 25.22 -2.9 26.8 65 -8.6 16.6
08:45 1025 30.27 854 25.22 -3.2 26.3 66 -8.7 16.4
08:50 1025 30.27 854 25.22 -3.2 26.2 66 -8.6 16.5
08:55 1025 30.27 854 25.22 -3.8 25.2 72 -8.2 17.3
09:00 1025 30.27 854 25.22 -4.5 23.9 73 -8.7 16.3
09:05 1025 30.27 854 25.22 -4.6 23.8 72 -8.9 15.9
09:10 1025 30.27 854 25.22 -4.7 23.5 75 -8.6 16.6
09:15 1025 30.27 854 25.22 -4.9 23.2 72 -9.2 15.5
09:20 1025 30.27 854 25.22 -5 23.1 70 -9.6 14.7
09:25 1025 30.27 854 25.22 -4.9 23.1 70 -9.6 14.7
09:30 1025 30.27 854 25.22 -4.1 24.6 66 -9.6 14.7
09:35 1025 30.27 854 25.22 -3.8 25.1 66 -9.3 15.3
09:40 1025 30.27 855 25.25 -3.7 25.4 65 -9.4 15
09:45 1025 30.27 855 25.25 -4.3 24.3 69 -9 15.7
09:50 1025 30.27 855 25.25 -4.6 23.7 73 -8.7 16.3
09:55 1025 30.27 855 25.25 -4 24.7 70 -8.7 16.4
10:00 1026 30.3 855 25.25 -3.3 26 66 -8.7 16.3
10:05 1026 30.3 855 25.25 -3.1 26.3 66 -8.7 16.4
10:10 1026 30.3 855 25.25 -3.3 26.1 66 -8.8 16.1
10:15 1026 30.3 855 25.25 -3.4 25.9 66 -8.9 16
10:20 1026 30.3 855 25.25 -3.6 25.5 67 -8.9 16
10:25 1026 30.3 855 25.25 -3.5 25.7 65 -9.1 15.6
10:30 1026 30.3 855 25.25 -3.3 26.1 66 -8.8 16.1
10:35 1026 30.3 855 25.25 -3.4 25.9 66 -8.9 16
10:40 1026 30.3 855 25.25 -3 26.5 64 -8.9 16
10:45 1026 30.3 855 25.25 -2.7 27.1 63 -8.8 16.2
10:50 1026 30.3 855 25.25 -2.6 27.3 63 -8.6 16.5
10:55 1026 30.3 855 25.25 -2.4 27.7 65 -8.1 17.4
11:00 1026 30.3 855 25.25 -2.3 27.9 63 -8.4 16.9
11:05 1026 30.3 855 25.25 -1.5 29.3 60 -8.3 17.1
11:10 1026 30.3 855 25.25 -0.7 30.8 57 -8.2 17.2
11:15 1026 30.3 855 25.25 -0.2 31.7 55 -8.2 17.3
11:20 1026 30.3 855 25.25 0.7 33.3 51 -8.2 17.2
11:25 1026 30.3 855 25.25 0.6 33.1 53 -8 17.7
11:30 1026 30.3 855 25.25 0.3 32.6 53 -8.2 17.2
11:35 1026 30.3 855 25.25 0.9 33.6 51 -8.2 17.3
11:40 1026 30.3 855 25.25 1.3 34.3 51 -7.9 17.8
11:45 1026 30.3 855 25.25 1.4 34.5 50 -8 17.6
11:50 1026 30.3 855 25.25 1.8 35.2 49 -7.9 17.8
11:55 1026 30.3 855 25.25 2.1 35.9 48 -7.9 17.8
12:00 1026 30.3 855 25.25 2 35.6 48 -7.9 17.8
12:05 1026 30.3 855 25.25 1.9 35.3 50 -7.5 18.6
12:10 1026 30.3 855 25.25 1.4 34.5 50 -7.9 17.7
12:15 1026 30.3 855 25.25 1.7 35 50 -7.6 18.3
12:20 1025 30.27 855 25.25 2 35.5 49 -7.6 18.4
12:25 1025 30.27 855 25.25 2.1 35.7 48 -7.8 18
12:30 1025 30.27 855 25.25 2 35.7 49 -7.6 18.4
12:35 1025 30.27 855 25.25 1.9 35.4 49 -7.8 18
12:40 1025 30.27 854 25.22 1.7 35 51 -7.4 18.6
12:45 1025 30.27 854 25.22 2.1 35.7 49 -7.6 18.3
12:50 1025 30.27 854 25.22 2.6 36.7 48 -7.4 18.6
12:55 1025 30.27 854 25.22 3 37.3 46 -7.5 18.5
13:00 1025 30.27 854 25.22 3.2 37.7 46 -7.4 18.7
13:05 1025 30.27 854 25.22 3.1 37.6 46 -7.4 18.8
13:10 1025 30.27 854 25.22 3.6 38.5 46 -7 19.4
13:15 1025 30.27 854 25.22 3.7 38.6 45 -7.3 18.9
13:20 1025 30.27 854 25.22 3.9 39 45 -7.1 19.3
13:25 1025 30.27 854 25.22 4.5 40 42 -7.3 18.9
13:30 1025 30.27 854 25.22 4.4 39.9 43 -7.1 19.2
13:35 1025 30.27 854 25.22 3.9 39 46 -6.7 19.9
13:40 1025 30.27 854 25.22 3.3 37.9 47 -7.1 19.2
13:45 1025 30.27 854 25.22 3 37.5 49 -6.8 19.8
13:50 1025 30.27 854 25.22 2.8 37 49 -6.8 19.7
13:55 1025 30.27 854 25.22 2.7 36.8 51 -6.5 20.3
14:00 1025 30.27 854 25.22 2.6 36.7 51 -6.6 20.2
14:05 1025 30.27 854 25.22 2.2 36 53 -6.4 20.5
14:10 1025 30.27 854 25.22 1.9 35.5 55 -6.2 20.8
14:15 1025 30.27 854 25.22 1.7 35.1 56 -6.2 20.8
14:20 1024 30.24 854 25.22 1.6 34.8 57 -6.2 20.9
14:25 1024 30.24 854 25.22 1.5 34.7 56 -6.4 20.4
14:30 1025 30.27 854 25.22 1.5 34.6 56 -6.3 20.7
14:35 1024 30.24 854 25.22 1.2 34.1 59 -5.9 21.3
14:40 1024 30.24 854 25.22 0.7 33.3 58 -6.5 20.3
14:45 1024 30.24 854 25.22 0.8 33.4 59 -6.3 20.6
14:50 1024 30.24 853 25.19 1 33.9 57 -6.4 20.4
14:55 1024 30.24 854 25.22 1.2 34.1 58 -6.3 20.7
15:00 1024 30.24 854 25.22 1.1 34.1 58 -6.3 20.6
15:05 1024 30.24 854 25.22 1.1 33.9 58 -6.3 20.7
15:10 1024 30.24 854 25.22 1 33.8 59 -6.1 21.1
15:15 1024 30.24 854 25.22 0.8 33.4 60 -6.2 20.9
15:20 1024 30.24 854 25.22 0.8 33.4 60 -6.2 20.9
15:25 1024 30.24 854 25.22 0.4 32.8 63 -5.8 21.5
15:30 1025 30.27 854 25.22 0.1 32.2 65 -5.8 21.6
15:35 1025 30.27 854 25.22 0.3 32.5 64 -5.8 21.5
15:40 1025 30.27 854 25.22 0.2 32.3 63 -6 21.2
15:45 1025 30.27 854 25.22 0 32 62 -6.5 20.4
15:50 1025 30.27 854 25.22 0.2 32.4 61 -6.5 20.3
15:55 1025 30.27 854 25.22 0.5 32.9 61 -6.3 20.7
16:00 1025 30.27 854 25.22 0.7 33.2 59 -6.3 20.6
16:05 1025 30.27 854 25.22 0.8 33.5 61 -5.9 21.3
16:10 1025 30.27 854 25.22 1 33.9 59 -6.1 20.9
16:15 1025 30.27 854 25.22 1 33.9 60 -5.8 21.5
16:20 1025 30.27 854 25.22 1.1 33.9 60 -5.9 21.3
16:25 1025 30.27 854 25.22 1.1 34 60 -5.8 21.6
16:30 1025 30.27 854 25.22 1.1 34.1 60 -5.7 21.8
16:35 1025 30.27 854 25.22 1.2 34.1 61 -5.4 22.3
16:40 1025 30.27 854 25.22 1.1 34 62 -5.4 22.2
16:45 1025 30.27 854 25.22 1.1 34 62 -5.5 22.2
16:50 1025 30.27 854 25.22 1 33.7 63 -5.3 22.4
16:55 1025 30.27 854 25.22 0.8 33.5 63 -5.5 22.1
17:00 1025 30.27 854 25.22 0.8 33.4 64 -5.3 22.4
17:05 1025 30.27 854 25.22 0.9 33.6 62 -5.6 22
17:10 1025 30.27 854 25.22 0.9 33.7 62 -5.4 22.2
17:15 1025 30.27 854 25.22 1 33.7 62 -5.4 22.2
17:20 1025 30.27 854 25.22 0.9 33.5 63 -5.4 22.3
17:25 1025 30.27 854 25.22 0.8 33.5 64 -5.3 22.4
17:30 1025 30.27 854 25.22 0.5 32.8 65 -5.3 22.5
17:35 1025 30.27 854 25.22 0.3 32.5 65 -5.5 22.1
17:40 1025 30.27 854 25.22 0.5 32.8 64 -5.5 22.1
17:45 1025 30.27 854 25.22 0.6 33 63 -5.7 21.8
17:50 1025 30.27 854 25.22 0.5 33 63 -5.8 21.6
17:55 1025 30.27 854 25.22 0.5 32.9 63 -5.8 21.6
18:00 1024 30.24 854 25.22 0.6 33 61 -6 21.1
18:05 1024 30.24 854 25.22 0.7 33.2 61 -6 21.3
18:10 1024 30.24 853 25.19 0.7 33.2 64 -5.3 22.5
18:15 1024 30.24 853 25.19 0.6 33 64 -5.5 22.1
18:20 1024 30.24 853 25.19 0.3 32.5 64 -5.7 21.8
18:25 1024 30.24 853 25.19 0.4 32.7 61 -6.3 20.6
18:30 1024 30.24 854 25.22 0.8 33.5 58 -6.5 20.3
18:35 1024 30.24 854 25.22 1.1 34 58 -6.2 20.9
18:40 1025 30.27 854 25.22 1.3 34.4 58 -6 21.2
18:45 1024 30.24 853 25.19 1.5 34.7 57 -6.2 20.9
18:50 1024 30.24 853 25.19 1.7 35.1 57 -5.8 21.5
18:55 1024 30.24 853 25.19 2 35.6 57 -5.7 21.7
19:00 1024 30.24 853 25.19 2.4 36.4 55 -5.7 21.7
19:05 1024 30.24 853 25.19 2.8 37 54 -5.6 21.8
19:10 1024 30.24 853 25.19 3 37.5 54 -5.3 22.4
19:15 1024 30.24 853 25.19 3 37.5 55 -5.1 22.8
19:20 1024 30.24 853 25.19 3.1 37.5 56 -5 23.1
19:25 1024 30.24 853 25.19 3.1 37.5 55 -5 23
19:30 1024 30.24 853 25.19 3.4 38 54 -5.1 22.9
19:35 1023 30.21 853 25.19 3.7 38.7 54 -4.6 23.7
19:40 1023 30.21 853 25.19 3.7 38.7 55 -4.4 24.1
19:45 1023 30.21 853 25.19 3.8 38.9 54 -4.7 23.6
19:50 1023 30.21 852 25.16 4 39.3 53 -4.7 23.6
19:55 1023 30.21 852 25.16 4 39.3 54 -4.5 23.8
20:00 1023 30.21 852 25.16 4.1 39.3 53 -4.7 23.5
20:05 1023 30.21 852 25.16 4.1 39.5 53 -4.5 24
20:10 1023 30.21 852 25.16 4.1 39.3 54 -4.5 23.9
20:15 1023 30.21 852 25.16 4.1 39.3 53 -4.6 23.7
20:20 1023 30.21 852 25.16 4.2 39.5 53 -4.4 24
20:25 1023 30.21 853 25.19 4.1 39.5 54 -4.3 24.3
20:30 1023 30.21 853 25.19 4.1 39.4 55 -4.1 24.6
20:35 1023 30.21 853 25.19 4.1 39.3 57 -3.7 25.4
20:40 1024 30.24 853 25.19 3.6 38.5 58 -3.9 25
20:45 1024 30.24 853 25.19 3.4 38.1 57 -4.4 24.1
20:50 1024 30.24 853 25.19 3.6 38.4 57 -4.1 24.6
20:55 1023 30.21 853 25.19 3.5 38.3 59 -3.8 25.1
21:00 1023 30.21 853 25.19 3.4 38.1 59 -3.9 25
21:05 1023 30.21 853 25.19 3.4 38 58 -4 24.7
21:10 1023 30.21 852 25.16 3.7 38.6 57 -4.1 24.6
21:15 1023 30.21 852 25.16 4.1 39.3 55 -4.1 24.6
21:20 1023 30.21 852 25.16 4.1 39.4 56 -4 24.9
21:25 1023 30.21 852 25.16 4 39.3 57 -3.6 25.5
21:30 1023 30.21 852 25.16 4 39.1 57 -3.8 25.1
21:35 1023 30.21 852 25.16 3.8 38.8 58 -3.8 25.2
21:40 1023 30.21 852 25.16 3.6 38.5 59 -3.8 25.2
21:45 1023 30.21 852 25.16 3.8 38.8 55 -4.5 24
21:50 1023 30.21 852 25.16 5 41.1 50 -4.5 23.8
21:55 1023 30.21 852 25.16 5.4 41.7 50 -4.2 24.4
22:00 1023 30.21 852 25.16 5.5 41.8 50 -4 24.8
22:05 1023 30.21 852 25.16 5.3 41.6 51 -3.9 24.9
22:10 1023 30.21 852 25.16 5.1 41.1 54 -3.5 25.7
22:15 1023 30.21 852 25.16 4.7 40.5 56 -3.3 26
22:20 1023 30.21 852 25.16 4.3 39.8 57 -3.5 25.7
22:25 1023 30.21 852 25.16 4.6 40.2 54 -4.1 24.7
22:30 1023 30.21 852 25.16 5 41.1 53 -3.7 25.4
22:35 1023 30.21 852 25.16 5 40.9 53 -3.8 25.2
22:40 1023 30.21 852 25.16 5 41 54 -3.6 25.6
22:45 1022 30.18 852 25.16 4.8 40.6 54 -3.7 25.4
22:50 1022 30.18 851 25.13 4.8 40.7 53 -3.8 25.1
22:55 1022 30.18 851 25.13 4.9 40.8 53 -3.9 24.9
23:00 1022 30.18 851 25.13 5 41.1 52 -4 24.8
23:05 1022 30.18 851 25.13 5.2 41.4 50 -4.2 24.4
23:10 1022 30.18 852 25.16 5.4 41.8 49 -4.4 24.1
23:15 1022 30.18 851 25.13 5.5 42 50 -4 24.7
23:20 1022 30.18 851 25.13 5.2 41.4 53 -3.7 25.3
23:25 1022 30.18 852 25.16 4.9 40.9 53 -3.8 25.1
23:30 1022 30.18 852 25.16 4.7 40.4 56 -3.3 26.1
23:35 1022 30.18 852 25.16 4.3 39.7 57 -3.6 25.5
23:40 1022 30.18 852 25.16 4.2 39.6 56 -3.7 25.4
23:45 1022 30.18 851 25.13 4.3 39.8 56 -3.7 25.3
23:50 1022 30.18 852 25.16 4.5 40 55 -3.9 25
23:55 1022 30.18 851 25.13 4.5 40.1 54 -3.9 25
24:00 1022 30.18 851 25.13 4.5 40.1 54 -4 24.9